Time;durP1;ratioP1;P1;durP2;ratioP2;P2;SDS_P1;SDS_P2;PMS_P1;PMS_P2;Temp;Humidity;BMP_temperature;BMP_pressure;BME280_temperature;BME280_humidity;BME280_pressure;Samples;Min_cycle;Max_cycle;Signal;HPM_P1;HPM_P2
2022/06/10 00:06:08;;;;;;;31.27;22.22;;;;;;;16.58;100.00;98861.02;3955370;88;21622;-85
2022/06/10 00:12:47;;;;;;;25.80;19.90;;;;;;;16.61;100.00;98859.39;3957326;89;21078;-85
2022/06/10 00:52:41;;;;;;;27.75;21.57;;;;;;;16.64;100.00;98873.16;3989442;87;21086;-86
2022/06/10 01:05:54;;;;;;;32.98;24.18;;;;;;;16.46;100.00;98878.77;3944305;89;21566;-85
2022/06/10 01:19:35;;;;;;;37.50;22.80;;;;;;;16.31;100.00;98900.23;3927769;89;21141;-86
2022/06/10 01:40:22;;;;;;;38.02;27.65;;;;;;;16.43;100.00;98881.72;4098258;85;21255;-86
2022/06/10 02:16:00;;;;;;;42.67;28.80;;;;;;;16.41;100.00;98932.45;3997320;87;21042;-88
2022/06/10 02:29:22;;;;;;;40.48;26.42;;;;;;;16.39;100.00;98940.39;4001124;86;44397;-88
2022/06/10 02:42:00;;;;;;;35.83;23.87;;;;;;;16.15;100.00;98944.23;4174702;83;21021;-87
2022/06/10 02:48:46;;;;;;;40.67;24.52;;;;;;;16.21;100.00;98952.86;4152030;84;22355;-87
2022/06/10 02:54:48;;;;;;;40.67;26.55;;;;;;;16.24;100.00;98961.08;4139397;84;21092;-87
2022/06/10 03:01:20;;;;;;;42.75;27.82;;;;;;;16.25;100.00;98966.02;4156345;84;21010;-87
2022/06/10 03:07:51;;;;;;;41.48;26.40;;;;;;;16.21;100.00;98974.95;4171897;83;20973;-87
2022/06/10 03:14:07;;;;;;;39.75;26.33;;;;;;;16.25;100.00;98985.35;4164682;82;21674;-87
2022/06/10 03:20:29;;;;;;;38.90;26.05;;;;;;;16.30;100.00;98989.81;4163085;84;21031;-87
2022/06/10 03:26:53;;;;;;;45.20;31.12;;;;;;;16.26;100.00;98997.37;4159119;84;21079;-87
2022/06/10 03:33:06;;;;;;;36.60;24.85;;;;;;;16.27;100.00;99005.06;4159942;84;21049;-87
2022/06/10 03:39:08;;;;;;;41.15;25.57;;;;;;;16.31;100.00;99012.70;4164257;82;21051;-87
2022/06/10 03:45:14;;;;;;;43.48;28.55;;;;;;;16.38;100.00;99023.69;4170735;84;21063;-87
2022/06/10 03:51:17;;;;;;;47.48;29.90;;;;;;;16.43;100.00;99028.73;4159853;84;20995;-86
2022/06/10 03:57:19;;;;;;;43.78;29.12;;;;;;;16.51;100.00;99028.28;4160133;83;22093;-87
2022/06/10 04:03:20;;;;;;;46.88;27.20;;;;;;;16.62;100.00;99037.22;4169456;83;21527;-87
2022/06/10 04:09:22;;;;;;;37.55;24.92;;;;;;;16.75;100.00;99042.98;4170307;84;21531;-88
2022/06/10 04:15:27;;;;;;;32.63;24.75;;;;;;;16.88;100.00;99038.48;4159738;83;21043;-87
2022/06/10 04:21:30;;;;;;;34.10;22.75;;;;;;;16.98;100.00;99041.68;4174169;82;21088;-87
2022/06/10 04:27:31;;;;;;;26.07;20.27;;;;;;;17.02;100.00;99045.95;4232731;82;21041;-89
2022/06/10 04:33:34;;;;;;;25.65;19.30;;;;;;;17.14;100.00;99055.69;4240661;82;21038;-86
2022/06/10 04:39:35;;;;;;;25.65;18.17;;;;;;;17.19;100.00;99072.58;4241095;82;21062;-86
2022/06/10 04:45:45;;;;;;;28.32;20.72;;;;;;;17.21;100.00;99081.25;4238094;82;20984;-86
2022/06/10 04:51:46;;;;;;;26.62;19.77;;;;;;;17.17;100.00;99094.37;4241777;81;21448;-85
2022/06/10 04:57:48;;;;;;;28.15;20.68;;;;;;;17.14;100.00;99106.27;4237010;82;21056;-85
2022/06/10 05:03:49;;;;;;;40.92;25.85;;;;;;;17.18;100.00;99101.45;4244567;82;21092;-87
2022/06/10 05:09:51;;;;;;;39.60;25.95;;;;;;;17.22;100.00;99109.71;4245008;82;20954;-88
2022/06/10 05:15:52;;;;;;;40.05;27.73;;;;;;;17.28;100.00;99108.63;4249161;81;21545;-86
2022/06/10 05:21:54;;;;;;;40.78;27.50;;;;;;;17.32;100.00;99119.06;4244613;82;21007;-86
2022/06/10 05:27:55;;;;;;;32.28;24.47;;;;;;;17.34;100.00;99127.13;4238096;82;20995;-86
2022/06/10 05:40:18;;;;;;;33.38;24.07;;;;;;;17.37;100.00;99139.36;4288816;81;21041;-87
2022/06/10 05:46:19;;;;;;;36.05;25.08;;;;;;;17.35;100.00;99148.08;4284625;81;21110;-85
2022/06/10 05:52:24;;;;;;;34.45;23.98;;;;;;;17.33;100.00;99151.85;4278045;81;22035;-87
2022/06/10 05:58:25;;;;;;;38.15;24.52;;;;;;;17.34;100.00;99160.33;4281515;81;21533;-86
2022/06/10 06:04:27;;;;;;;37.95;25.82;;;;;;;17.30;100.00;99162.95;4297870;81;21460;-87
2022/06/10 06:10:29;;;;;;;34.58;22.75;;;;;;;17.30;100.00;99163.75;4277962;81;21026;-86
2022/06/10 06:16:30;;;;;;;39.65;23.85;;;;;;;17.36;100.00;99164.06;4285635;81;21527;-86
2022/06/10 06:22:31;;;;;;;33.23;21.68;;;;;;;17.44;100.00;99169.13;4276347;81;21545;-86
2022/06/10 06:28:32;;;;;;;36.50;22.40;;;;;;;17.51;100.00;99171.02;4275020;81;21546;-85
2022/06/10 06:34:34;;;;;;;37.53;23.75;;;;;;;17.55;100.00;99173.13;4278024;81;21478;-86
2022/06/10 06:40:51;;;;;;;34.78;22.98;;;;;;;17.61;100.00;99180.55;4260994;81;21003;-87
2022/06/10 06:46:52;;;;;;;33.92;21.15;;;;;;;17.63;100.00;99192.00;4239869;82;21063;-87
2022/06/10 06:53:08;;;;;;;37.03;22.58;;;;;;;17.66;100.00;99200.05;4250552;82;20968;-86
2022/06/10 07:06:35;;;;;;;38.33;24.15;;;;;;;17.77;100.00;99209.79;4233507;82;22024;-87
2022/06/10 07:12:36;;;;;;;38.45;25.88;;;;;;;17.82;100.00;99212.69;4233235;82;21065;-88
2022/06/10 07:25:15;;;;;;;44.67;27.40;;;;;;;17.62;100.00;99205.64;4236608;82;21623;-87
2022/06/10 07:31:17;;;;;;;47.40;28.23;;;;;;;17.62;100.00;99205.64;4243057;82;20970;-87
2022/06/10 07:37:18;;;;;;;41.53;27.55;;;;;;;17.86;100.00;99221.72;4241658;81;21078;-87
2022/06/10 07:43:20;;;;;;;44.85;27.45;;;;;;;17.92;100.00;99218.66;4236305;82;21554;-87
2022/06/10 07:49:22;;;;;;;48.58;29.25;;;;;;;17.93;100.00;99225.16;4245878;82;21592;-86
2022/06/10 07:55:33;;;;;;;47.20;29.35;;;;;;;17.91;100.00;99236.48;4236381;82;21520;-86
2022/06/10 08:08:54;;;;;;;44.03;29.37;;;;;;;17.86;100.00;99241.09;4248504;81;21018;-86
2022/06/10 08:14:55;;;;;;;48.87;32.73;;;;;;;17.86;100.00;99245.25;4234685;82;21094;-86
2022/06/10 08:27:17;;;;;;;51.25;29.42;;;;;;;18.00;100.00;99253.36;4117931;84;21047;-87
2022/06/10 08:33:19;;;;;;;46.08;30.60;;;;;;;18.17;100.00;99256.46;4122037;85;21046;-85
2022/06/10 08:39:27;;;;;;;47.88;28.77;;;;;;;18.43;100.00;99254.31;4249775;81;21065;-85
2022/06/10 08:52:19;;;;;;;47.27;30.75;;;;;;;18.48;100.00;99268.47;4196336;83;20990;-85
2022/06/10 09:05:15;;;;;;;35.43;26.00;;;;;;;18.22;100.00;99276.19;4125461;85;21053;-86
2022/06/10 09:11:28;;;;;;;34.53;23.85;;;;;;;18.16;100.00;99286.77;4144430;84;21462;-87
2022/06/10 09:17:38;;;;;;;33.70;23.62;;;;;;;18.21;100.00;99297.38;4114850;84;21082;-85
2022/06/10 09:23:43;;;;;;;37.23;24.60;;;;;;;18.33;100.00;99300.36;4286048;81;21059;-86
2022/06/10 09:29:45;;;;;;;30.90;22.85;;;;;;;18.43;100.00;99306.98;4285793;81;21450;-85
2022/06/10 09:36:16;;;;;;;32.63;20.88;;;;;;;18.45;100.00;99315.05;4287770;81;21929;-86
2022/06/10 09:42:46;;;;;;;36.20;22.55;;;;;;;18.46;100.00;99320.00;4262324;81;21015;-87
2022/06/10 09:49:22;;;;;;;29.75;21.05;;;;;;;18.48;100.00;99325.89;4239696;82;21006;-86
2022/06/10 09:55:38;;;;;;;33.63;23.73;;;;;;;18.49;100.00;99334.41;4180509;82;21619;-86
2022/06/10 10:01:47;;;;;;;37.93;25.10;;;;;;;18.50;100.00;99335.37;4232488;81;21083;-86
2022/06/10 10:07:54;;;;;;;50.85;23.00;;;;;;;18.49;100.00;99335.20;4234430;82;20998;-86
2022/06/10 10:14:17;;;;;;;;;;;;;;;18.44;100.00;99334.87;4247266;82;20998;-87
2022/06/10 10:20:54;;;;;;;29.72;21.00;;;;;;;18.39;100.00;99333.36;4245687;82;20165;-86
2022/06/10 10:26:58;;;;;;;30.13;21.07;;;;;;;18.35;100.00;99338.74;4142277;84;21566;-87
2022/06/10 10:33:08;;;;;;;37.73;21.35;;;;;;;18.35;100.00;99341.52;4090949;85;22058;-86
2022/06/10 10:39:33;;;;;;;27.00;19.75;;;;;;;18.39;100.00;99351.97;4237725;82;21015;-87
2022/06/10 10:45:39;;;;;;;15.98;12.05;;;;;;;18.43;100.00;99346.55;4193946;83;21903;-87
2022/06/10 10:51:41;;;;;;;18.50;11.40;;;;;;;18.45;100.00;99346.92;4120105;84;21007;-87
2022/06/10 10:58:06;;;;;;;20.20;12.40;;;;;;;18.55;100.00;99344.61;4179195;83;21055;-87
2022/06/10 11:04:41;;;;;;;13.75;11.12;;;;;;;18.65;100.00;99353.34;4179732;84;21059;-86
2022/06/10 11:17:26;;;;;;;12.47;10.40;;;;;;;18.73;100.00;99354.00;4165706;84;21043;-87
2022/06/10 11:23:27;;;;;;;21.23;12.15;;;;;;;18.83;100.00;99353.06;4182096;84;20979;-86
2022/06/10 11:29:29;;;;;;;15.70;10.32;;;;;;;18.99;100.00;99355.17;4180021;84;21024;-87
2022/06/10 11:35:44;;;;;;;13.68;10.05;;;;;;;19.08;100.00;99347.88;4178305;84;21624;-86
2022/06/10 11:42:08;;;;;;;13.93;9.73;;;;;;;19.18;100.00;99347.52;4146595;84;21126;-88
2022/06/10 11:48:32;;;;;;;11.75;9.40;;;;;;;19.17;100.00;99350.12;4152515;84;21090;-86
2022/06/10 11:55:05;;;;;;;19.60;12.65;;;;;;;19.14;100.00;99348.19;4134991;84;21048;-87
2022/06/10 12:01:23;;;;;;;13.43;10.90;;;;;;;19.15;100.00;99353.32;4149124;84;21160;-87
2022/06/10 12:07:28;;;;;;;19.42;12.20;;;;;;;19.16;100.00;99353.48;4148447;84;22062;-87
2022/06/10 12:13:41;;;;;;;19.32;11.22;;;;;;;19.15;100.00;99358.87;4154890;84;21044;-87
2022/06/10 12:19:47;;;;;;;18.00;13.95;;;;;;;19.17;100.00;99359.83;4149539;84;21031;-86
2022/06/10 12:26:09;;;;;;;34.20;15.65;;;;;;;19.24;100.00;99360.48;4150337;84;21095;-86
2022/06/10 12:32:48;;;;;;;19.65;12.78;;;;;;;19.22;100.00;99357.34;4153142;84;21023;-87
2022/06/10 12:38:51;;;;;;;17.07;14.07;;;;;;;19.24;100.00;99352.16;4152879;84;21059;-87
2022/06/10 12:44:56;;;;;;;19.98;13.18;;;;;;;19.24;100.00;99353.55;4037596;85;21121;-86
2022/06/10 12:51:15;;;;;;;20.00;12.15;;;;;;;19.17;100.00;99361.22;4027852;87;21510;-87
2022/06/10 12:57:28;;;;;;;17.40;11.88;;;;;;;19.10;100.00;99357.17;4020640;85;21061;-87
2022/06/10 13:03:33;;;;;;;17.50;11.95;;;;;;;19.03;100.00;99361.47;4029587;87;21549;-87
2022/06/10 13:09:37;;;;;;;14.20;11.80;;;;;;;18.97;100.00;99355.59;4022528;86;45965;-87
2022/06/10 13:15:40;;;;;;;12.68;11.38;;;;;;;18.99;100.00;99357.36;4032402;86;21142;-87
2022/06/10 13:21:41;;;;;;;11.70;10.55;;;;;;;19.06;100.00;99351.67;4039792;86;21097;-86
2022/06/10 13:27:47;;;;;;;19.30;10.25;;;;;;;19.17;99.75;99352.27;4105332;85;21052;-88
2022/06/10 13:34:06;;;;;;;17.15;10.53;;;;;;;19.23;99.35;99349.81;4104050;85;21073;-87
2022/06/10 13:40:21;;;;;;;13.55;10.38;;;;;;;19.24;99.11;99358.30;4117157;83;21071;-88
2022/06/10 13:46:30;;;;;;;12.28;10.80;;;;;;;19.22;98.94;99356.55;4225125;83;21062;-87
2022/06/10 13:52:35;;;;;;;17.17;12.13;;;;;;;19.33;98.65;99354.39;4222125;83;20986;-87
2022/06/10 13:58:36;;;;;;;17.00;12.47;;;;;;;19.50;98.29;99357.44;4233468;82;21071;-85
2022/06/10 14:04:37;;;;;;;15.13;13.18;;;;;;;19.58;98.00;99351.34;4224563;83;21113;-86
2022/06/10 14:10:49;;;;;;;20.27;13.65;;;;;;;19.51;97.42;99353.47;4230086;83;21872;-87
2022/06/10 14:17:11;;;;;;;15.03;12.30;;;;;;;19.43;97.06;99350.05;4214281;83;22025;-87
2022/06/10 14:23:29;;;;;;;16.30;12.78;;;;;;;19.48;96.91;99346.00;4228494;83;21020;-86
2022/06/10 14:29:49;;;;;;;15.40;13.05;;;;;;;19.68;96.70;99346.78;4219906;83;20996;-86
2022/06/10 14:35:54;;;;;;;16.67;13.58;;;;;;;19.81;96.21;99350.50;4222768;82;21522;-86
2022/06/10 14:42:07;;;;;;;17.32;13.03;;;;;;;19.90;95.72;99343.16;4216787;83;21033;-87
2022/06/10 14:48:38;;;;;;;18.12;12.75;;;;;;;19.91;95.44;99339.75;4178239;83;21556;-87
2022/06/10 14:54:41;;;;;;;13.95;11.68;;;;;;;19.88;94.61;99341.41;4188698;83;20966;-87
2022/06/10 15:00:47;;;;;;;14.18;11.12;;;;;;;19.94;94.33;99350.02;4190154;83;21019;-87
2022/06/10 15:06:57;;;;;;;14.45;11.70;;;;;;;20.01;93.96;99350.64;4193455;83;20965;-88
2022/06/10 15:12:59;;;;;;;13.72;10.13;;;;;;;20.06;93.52;99354.31;4193011;83;21015;-87
2022/06/10 15:19:01;;;;;;;12.50;9.28;;;;;;;20.09;93.15;99356.22;4195274;83;21450;-87
2022/06/10 15:25:13;;;;;;;10.55;8.48;;;;;;;20.15;92.82;99359.33;4190656;83;21935;-87
2022/06/10 15:31:14;;;;;;;14.83;9.23;;;;;;;20.24;92.34;99353.95;4187124;83;21008;-87
2022/06/10 15:43:36;;;;;;;8.35;7.37;;;;;;;20.27;91.89;99360.64;4196302;83;21071;-87
2022/06/10 15:49:38;;;;;;;11.53;7.53;;;;;;;20.19;91.52;99355.25;4203098;83;21552;-86
2022/06/10 16:01:59;;;;;;;10.75;7.78;;;;;;;20.04;90.97;99358.73;4202844;83;22269;-88
2022/06/10 16:08:00;;;;;;;12.85;9.43;;;;;;;19.98;91.41;99364.62;4195457;83;21023;-87
2022/06/10 16:14:02;;;;;;;12.10;9.85;;;;;;;19.94;91.43;99366.09;4201251;82;20992;-86
2022/06/10 16:20:05;;;;;;;13.43;10.85;;;;;;;19.95;91.67;99364.86;4206772;83;21074;-87
2022/06/10 16:26:29;;;;;;;17.20;10.58;;;;;;;19.94;91.79;99366.68;4200909;83;21536;-87
2022/06/10 16:32:30;;;;;;;12.13;9.23;;;;;;;19.92;91.69;99360.79;4199758;83;21011;-88
2022/06/10 16:38:31;;;;;;;13.48;9.75;;;;;;;19.95;92.07;99352.98;4216909;82;21519;-87
2022/06/10 16:44:40;;;;;;;12.18;8.10;;;;;;;19.99;92.20;99356.45;4227166;82;21028;-87
2022/06/10 16:50:41;;;;;;;11.97;10.05;;;;;;;20.00;92.48;99349.08;4160405;84;20989;-87
2022/06/10 16:56:43;;;;;;;16.17;8.93;;;;;;;19.98;92.43;99354.28;4138048;82;10000258;-86
2022/06/10 17:02:52;;;;;;;11.22;9.20;;;;;;;19.93;92.42;99349.84;4252483;82;21427;-87
2022/06/10 17:08:53;;;;;;;9.93;8.90;;;;;;;19.87;92.50;99360.66;4251393;82;21070;-86
2022/06/10 17:15:06;;;;;;;9.65;8.65;;;;;;;19.82;92.69;99363.17;4256231;82;21559;-87
2022/06/10 17:21:07;;;;;;;9.93;8.88;;;;;;;19.77;92.73;99366.44;4162230;84;21080;-86
2022/06/10 17:27:17;;;;;;;11.88;8.38;;;;;;;19.67;92.83;99372.38;4259785;82;20990;-86
2022/06/10 17:33:33;;;;;;;9.85;8.85;;;;;;;19.62;92.95;99383.21;4251301;82;21062;-86
2022/06/10 17:39:34;;;;;;;10.45;8.30;;;;;;;19.55;93.15;99379.96;4255215;82;21038;-86
2022/06/10 17:45:35;;;;;;;14.65;8.38;;;;;;;19.50;93.36;99387.98;4203425;82;21503;-86
2022/06/10 17:51:36;;;;;;;10.68;7.65;;;;;;;19.44;93.52;99393.25;4198760;83;21470;-86
2022/06/10 17:57:47;;;;;;;9.23;7.92;;;;;;;19.43;93.52;99401.41;4196285;82;21030;-85
2022/06/10 18:03:50;;;;;;;12.30;8.13;;;;;;;19.40;93.50;99399.48;4195612;83;21936;-86
2022/06/10 18:09:51;;;;;;;8.50;7.70;;;;;;;19.35;93.50;99403.34;4192083;83;22018;-87
2022/06/10 18:15:56;;;;;;;12.95;8.13;;;;;;;19.26;93.99;99403.08;4196072;83;21085;-86
2022/06/10 18:22:01;;;;;;;8.90;8.00;;;;;;;19.23;94.13;99410.86;4193827;83;21003;-86
2022/06/10 18:28:02;;;;;;;13.45;8.33;;;;;;;19.16;94.46;99410.38;4193283;83;21174;-86
2022/06/10 18:34:05;;;;;;;10.75;8.48;;;;;;;19.09;94.60;99416.66;4194925;83;21002;-86
2022/06/10 18:40:29;;;;;;;12.70;8.63;;;;;;;19.00;94.66;99433.03;4196389;83;20984;-86
2022/06/10 18:46:30;;;;;;;13.95;8.90;;;;;;;18.74;94.78;99449.26;4188091;83;21582;-87
2022/06/10 18:52:32;;;;;;;13.35;9.50;;;;;;;18.72;95.20;99449.51;4185363;83;21008;-86
2022/06/10 18:58:33;;;;;;;14.03;10.38;;;;;;;18.66;95.39;99451.19;4199004;83;22070;-87
2022/06/10 19:04:41;;;;;;;15.88;11.63;;;;;;;18.49;95.33;99468.84;4177852;82;20999;-86
2022/06/10 19:10:43;;;;;;;13.55;10.63;;;;;;;18.42;95.84;99475.27;4209250;83;20988;-86
2022/06/10 19:16:48;;;;;;;14.55;11.35;;;;;;;18.33;95.96;99483.87;4197510;83;21015;-86
2022/06/10 19:23:16;;;;;;;14.43;11.57;;;;;;;18.34;96.26;99490.97;4179865;83;21038;-86
2022/06/10 19:29:17;;;;;;;17.62;13.00;;;;;;;18.31;96.50;99502.30;4206242;83;21015;-87
2022/06/10 19:35:27;;;;;;;17.12;11.50;;;;;;;18.24;96.80;99505.17;4191434;83;21047;-87
2022/06/10 19:41:29;;;;;;;24.67;11.73;;;;;;;18.28;97.05;99503.72;4179455;82;21010;-87
2022/06/10 19:47:41;;;;;;;18.73;11.65;;;;;;;18.21;97.18;99510.74;4228945;82;21015;-86
2022/06/10 19:53:43;;;;;;;22.45;12.15;;;;;;;18.20;97.42;99508.56;4228397;82;21102;-87
2022/06/10 19:59:45;;;;;;;11.65;10.16;;;;;;;18.20;97.65;99517.47;4092519;82;10000425;-87
2022/06/10 20:05:46;;;;;;;14.28;10.80;;;;;;;18.18;97.73;99506.03;4231920;82;21434;-87
2022/06/10 20:11:47;;;;;;;17.55;11.97;;;;;;;18.14;97.88;99506.06;4229942;82;21405;-86
2022/06/10 20:17:50;;;;;;;14.73;12.18;;;;;;;18.15;98.23;99504.85;4215706;82;22203;-85
2022/06/10 20:23:55;;;;;;;16.10;11.50;;;;;;;18.11;98.33;99509.66;4230093;82;21143;-87
2022/06/10 20:29:56;;;;;;;17.30;11.30;;;;;;;18.13;98.51;99513.41;4233067;82;21935;-86
2022/06/10 20:36:01;;;;;;;13.53;11.68;;;;;;;18.10;98.68;99516.38;4230441;82;21054;-86
2022/06/10 20:42:04;;;;;;;14.40;10.95;;;;;;;18.04;98.69;99510.34;4225233;82;21122;-86
2022/06/10 20:48:20;;;;;;;15.18;11.83;;;;;;;18.01;99.11;99511.94;4228089;82;21030;-86
2022/06/10 20:54:23;;;;;;;14.98;11.70;;;;;;;18.04;99.23;99508.34;4220379;82;21519;-86
2022/06/10 21:00:27;;;;;;;18.20;13.05;;;;;;;18.01;99.33;99510.55;4220582;82;21369;-86
2022/06/10 21:12:53;;;;;;;17.05;10.85;;;;;;;17.91;99.54;99499.59;4224870;82;22283;-86
2022/06/10 21:18:55;;;;;;;16.42;11.28;;;;;;;17.91;99.88;99494.84;4230188;82;21594;-87
2022/06/10 21:24:56;;;;;;;14.35;11.53;;;;;;;17.90;100.00;99484.95;4225880;82;21020;-87
2022/06/10 21:31:03;;;;;;;13.13;9.98;;;;;;;17.91;99.95;99490.69;4225202;82;21750;-86
2022/06/10 21:37:06;;;;;;;;;;;;;;;17.77;99.80;99488.06;4230890;81;21071;-86
2022/06/10 21:49:31;;;;;;;13.48;8.53;;;;;;;17.76;100.00;99480.17;4229418;82;21533;-87
2022/06/10 21:55:32;;;;;;;10.70;8.78;;;;;;;17.72;100.00;99476.64;4225177;82;21034;-86
2022/06/10 22:02:19;;;;;;;10.28;8.63;;;;;;;17.67;100.00;99482.02;4239090;82;22353;-87
2022/06/10 22:08:21;;;;;;;11.90;9.80;;;;;;;17.59;99.95;99488.82;4223379;82;21219;-86
2022/06/10 22:14:24;;;;;;;14.10;10.65;;;;;;;17.51;100.00;99489.31;4226817;82;21048;-86
2022/06/10 22:20:30;;;;;;;15.40;11.28;;;;;;;17.44;100.00;99486.00;4230988;82;21005;-87
2022/06/10 22:26:31;;;;;;;15.70;10.55;;;;;;;17.38;100.00;99495.11;4228636;82;21944;-86
2022/06/10 22:32:33;;;;;;;16.73;12.15;;;;;;;17.34;100.00;99502.67;4234246;82;21040;-87
2022/06/10 22:38:46;;;;;;;14.87;12.93;;;;;;;17.26;100.00;99512.98;4230175;82;21031;-87
2022/06/10 22:44:47;;;;;;;15.45;12.88;;;;;;;17.14;100.00;99509.33;4208408;82;21029;-87
2022/06/10 22:50:50;;;;;;;15.90;13.18;;;;;;;17.03;100.00;99514.14;4195443;83;22017;-86
2022/06/10 22:56:52;;;;;;;16.65;14.05;;;;;;;16.95;100.00;99514.00;4184383;83;21140;-86
2022/06/10 23:03:14;;;;;;;16.82;14.35;;;;;;;16.79;100.00;99518.63;4191562;83;22137;-86
2022/06/10 23:15:49;;;;;;;26.25;17.05;;;;;;;16.47;100.00;99531.04;4195065;83;21029;-86
2022/06/10 23:22:02;;;;;;;21.17;15.70;;;;;;;16.35;100.00;99534.22;4193131;83;21147;-86
2022/06/10 23:28:06;;;;;;;22.05;14.73;;;;;;;16.24;100.00;99534.23;4185435;83;21055;-85
2022/06/10 23:34:24;;;;;;;19.45;15.68;;;;;;;16.11;100.00;99533.11;4191219;83;21017;-86
2022/06/10 23:40:31;;;;;;;21.42;15.43;;;;;;;15.99;100.00;99536.27;4194188;83;21461;-85
2022/06/10 23:53:35;;;;;;;16.30;13.10;;;;;;;15.82;100.00;99534.33;4185047;83;21027;-86
2022/06/10 23:59:40;;;;;;;18.00;12.28;;;;;;;15.77;100.00;99539.48;4205145;83;21094;-86
